Time;durP1;ratioP1;P1;durP2;ratioP2;P2;SDS_P1;SDS_P2;PMS_P1;PMS_P2;Temp;Humidity;BMP_temperature;BMP_pressure;BME280_temperature;BME280_humidity;BME280_pressure;Samples;Min_cycle;Max_cycle;Signal;HPM_P1;HPM_P2
2021/05/03 00:01:39;;;;;;;0.10;0.10;;;;;;;;;;3562766;40;20449;-66
2021/05/03 00:04:05;;;;;;;1.05;0.10;;;;;;;;;;3568228;40;20407;-66
2021/05/03 00:06:31;;;;;;;0.25;0.10;;;;;;;;;;3561359;40;20401;-66
2021/05/03 00:08:57;;;;;;;0.20;0.10;;;;;;;;;;3569359;40;20395;-67
2021/05/03 00:11:24;;;;;;;0.50;0.10;;;;;;;;;;3557991;40;20476;-67
2021/05/03 00:13:50;;;;;;;0.30;0.10;;;;;;;;;;3569482;40;20368;-66
2021/05/03 00:16:17;;;;;;;0.20;0.10;;;;;;;;;;3559416;40;20707;-67
2021/05/03 00:18:43;;;;;;;0.20;0.10;;;;;;;;;;3556595;40;20409;-67
2021/05/03 00:21:09;;;;;;;0.38;0.20;;;;;;;;;;3567012;40;20702;-67
2021/05/03 00:23:36;;;;;;;0.90;0.10;;;;;;;;;;3564714;40;20801;-67
2021/05/03 00:26:02;;;;;;;0.10;0.10;;;;;;;;;;3565423;40;20473;-68
2021/05/03 00:28:28;;;;;;;0.30;0.10;;;;;;;;;;3561602;40;20416;-67
2021/05/03 00:30:54;;;;;;;0.50;0.10;;;;;;;;;;3562221;40;20393;-67
2021/05/03 00:33:21;;;;;;;0.20;0.20;;;;;;;;;;3563447;40;20464;-67
2021/05/03 00:35:48;;;;;;;0.40;0.10;;;;;;;;;;3563551;40;20854;-67
2021/05/03 00:38:14;;;;;;;0.60;0.10;;;;;;;;;;3566672;40;20418;-67
2021/05/03 00:40:41;;;;;;;0.25;0.08;;;;;;;;;;3564432;40;20402;-66
2021/05/03 00:43:07;;;;;;;0.68;0.10;;;;;;;;;;3568765;40;20436;-67
2021/05/03 00:45:33;;;;;;;0.10;0.10;;;;;;;;;;3565895;40;20850;-66
2021/05/03 00:48:00;;;;;;;0.80;0.10;;;;;;;;;;3565494;40;20799;-66
2021/05/03 00:50:29;;;;;;;0.30;0.10;;;;;;;;;;3564172;40;20387;-67
2021/05/03 00:52:56;;;;;;;0.17;0.10;;;;;;;;;;3565968;40;20640;-67
2021/05/03 00:55:24;;;;;;;0.00;0.00;;;;;;;;;;3570464;40;20449;-67
2021/05/03 00:57:50;;;;;;;0.50;0.10;;;;;;;;;;3570637;40;20384;-67
2021/05/03 01:00:17;;;;;;;0.30;0.10;;;;;;;;;;3569539;40;20489;-66
2021/05/03 01:05:12;;;;;;;0.20;0.10;;;;;;;;;;3577268;40;20414;-73
2021/05/03 01:07:39;;;;;;;0.00;0.00;;;;;;;;;;3576576;40;20396;-72
2021/05/03 01:10:06;;;;;;;0.13;0.10;;;;;;;;;;3575798;40;20439;-73
2021/05/03 01:12:32;;;;;;;0.20;0.10;;;;;;;;;;3576289;40;20375;-72
2021/05/03 01:14:58;;;;;;;0.10;0.10;;;;;;;;;;3568071;40;20399;-73
2021/05/03 01:17:31;;;;;;;0.10;0.10;;;;;;;;;;3577418;40;20756;-73
2021/05/03 01:19:57;;;;;;;0.60;0.15;;;;;;;;;;3572232;40;20451;-72
2021/05/03 01:22:25;;;;;;;0.73;0.10;;;;;;;;;;3568028;40;20400;-73
2021/05/03 01:24:52;;;;;;;0.70;0.10;;;;;;;;;;3571054;40;20396;-73
2021/05/03 01:27:18;;;;;;;0.35;0.10;;;;;;;;;;3578913;40;20739;-73
2021/05/03 01:29:44;;;;;;;0.80;0.10;;;;;;;;;;3578897;40;20364;-73
2021/05/03 01:32:10;;;;;;;0.20;0.10;;;;;;;;;;3576958;40;20634;-73
2021/05/03 01:34:39;;;;;;;0.10;0.10;;;;;;;;;;3566528;40;20437;-73
2021/05/03 01:37:05;;;;;;;1.05;0.10;;;;;;;;;;3577167;40;20637;-73
2021/05/03 01:39:32;;;;;;;0.50;0.10;;;;;;;;;;3576643;40;20658;-73
2021/05/03 01:42:00;;;;;;;0.30;0.10;;;;;;;;;;3569964;40;20495;-73
2021/05/03 01:44:28;;;;;;;0.70;0.20;;;;;;;;;;3580835;40;20736;-72
2021/05/03 01:46:54;;;;;;;0.45;0.10;;;;;;;;;;3573421;40;20742;-73
2021/05/03 01:49:20;;;;;;;0.90;0.20;;;;;;;;;;3577839;40;20952;-73
2021/05/03 01:51:47;;;;;;;0.20;0.10;;;;;;;;;;3578166;40;20375;-74
2021/05/03 01:54:13;;;;;;;0.50;0.30;;;;;;;;;;3577336;40;20371;-73
2021/05/03 01:56:40;;;;;;;2.00;0.10;;;;;;;;;;3579977;40;20366;-73
2021/05/03 01:59:07;;;;;;;0.30;0.20;;;;;;;;;;3570183;40;20378;-73
2021/05/03 02:01:33;;;;;;;0.80;0.20;;;;;;;;;;3572260;40;20373;-73
2021/05/03 02:03:59;;;;;;;0.30;0.20;;;;;;;;;;3577064;40;20387;-74
2021/05/03 02:06:26;;;;;;;0.60;0.10;;;;;;;;;;3570538;40;20514;-73
2021/05/03 02:08:52;;;;;;;0.40;0.10;;;;;;;;;;3570091;40;20396;-73
2021/05/03 02:11:18;;;;;;;1.20;0.17;;;;;;;;;;3565772;40;20496;-73
2021/05/03 02:13:45;;;;;;;0.60;0.10;;;;;;;;;;3574792;40;20386;-73
2021/05/03 02:16:11;;;;;;;0.20;0.10;;;;;;;;;;3572817;40;20745;-73
2021/05/03 02:18:38;;;;;;;0.70;0.10;;;;;;;;;;3573530;40;20739;-73
2021/05/03 02:21:04;;;;;;;0.30;0.20;;;;;;;;;;3577230;40;20388;-73
2021/05/03 02:23:30;;;;;;;0.30;0.13;;;;;;;;;;3573309;40;20414;-73
2021/05/03 02:25:56;;;;;;;0.28;0.10;;;;;;;;;;3576872;40;20372;-73
2021/05/03 02:28:23;;;;;;;0.60;0.10;;;;;;;;;;3568099;40;20425;-73
2021/05/03 02:30:50;;;;;;;0.25;0.15;;;;;;;;;;3577843;40;20661;-73
2021/05/03 02:33:16;;;;;;;0.90;0.20;;;;;;;;;;3576938;40;20376;-80
2021/05/03 02:35:42;;;;;;;0.13;0.10;;;;;;;;;;3570858;40;20372;-73
2021/05/03 02:38:09;;;;;;;0.20;0.13;;;;;;;;;;3572626;40;20366;-73
2021/05/03 02:40:36;;;;;;;0.57;0.10;;;;;;;;;;3569713;40;20402;-73
2021/05/03 02:43:03;;;;;;;0.10;0.10;;;;;;;;;;3572979;40;20374;-73
2021/05/03 02:45:29;;;;;;;0.50;0.20;;;;;;;;;;3568468;40;20382;-73
2021/05/03 02:47:57;;;;;;;0.20;0.20;;;;;;;;;;3571101;40;20485;-73
2021/05/03 02:50:23;;;;;;;0.80;0.10;;;;;;;;;;3571744;40;20386;-73
2021/05/03 02:52:50;;;;;;;0.20;0.10;;;;;;;;;;3569202;40;20396;-74
2021/05/03 02:55:17;;;;;;;0.50;0.17;;;;;;;;;;3573027;40;20624;-73
2021/05/03 02:57:44;;;;;;;0.28;0.10;;;;;;;;;;3568901;40;20759;-73
2021/05/03 03:00:11;;;;;;;0.60;0.20;;;;;;;;;;3577148;40;20473;-72
2021/05/03 03:02:37;;;;;;;1.20;0.30;;;;;;;;;;3576829;40;20388;-71
2021/05/03 03:05:05;;;;;;;0.30;0.10;;;;;;;;;;3576507;40;20869;-72
2021/05/03 03:07:32;;;;;;;0.13;0.10;;;;;;;;;;3572574;40;20420;-72
2021/05/03 03:09:58;;;;;;;0.20;0.10;;;;;;;;;;3575311;40;20779;-71
2021/05/03 03:12:24;;;;;;;0.30;0.10;;;;;;;;;;3575491;40;20380;-71
2021/05/03 03:14:50;;;;;;;0.30;0.10;;;;;;;;;;3576522;40;20796;-72
2021/05/03 03:17:17;;;;;;;0.55;0.20;;;;;;;;;;3576866;40;20752;-71
2021/05/03 03:19:43;;;;;;;1.00;0.13;;;;;;;;;;3567242;40;20408;-71
2021/05/03 03:22:10;;;;;;;0.30;0.17;;;;;;;;;;3569718;40;20375;-71
2021/05/03 03:24:36;;;;;;;0.20;0.10;;;;;;;;;;3576861;40;20764;-71
2021/05/03 03:27:03;;;;;;;1.13;0.20;;;;;;;;;;3571173;40;20383;-71
2021/05/03 03:29:29;;;;;;;0.38;0.20;;;;;;;;;;3565060;40;20789;-72
2021/05/03 03:31:56;;;;;;;0.30;0.10;;;;;;;;;;3576142;40;20444;-71
2021/05/03 03:34:22;;;;;;;0.25;0.10;;;;;;;;;;3574374;40;20381;-72
2021/05/03 03:36:48;;;;;;;0.17;0.10;;;;;;;;;;3576393;40;20763;-72
2021/05/03 03:39:15;;;;;;;0.55;0.20;;;;;;;;;;3577639;40;20375;-72
2021/05/03 03:41:42;;;;;;;0.40;0.15;;;;;;;;;;3576484;40;20641;-72
2021/05/03 03:44:09;;;;;;;1.05;0.20;;;;;;;;;;3571778;40;20388;-71
2021/05/03 03:46:35;;;;;;;0.65;0.20;;;;;;;;;;3576419;40;20388;-71
2021/05/03 03:49:01;;;;;;;0.40;0.20;;;;;;;;;;3576298;40;20772;-72
2021/05/03 03:51:28;;;;;;;0.10;0.10;;;;;;;;;;3574555;40;20403;-71
2021/05/03 03:53:54;;;;;;;0.30;0.20;;;;;;;;;;3576992;40;20372;-71
2021/05/03 03:56:22;;;;;;;0.27;0.20;;;;;;;;;;3577825;40;20377;-71
2021/05/03 03:58:49;;;;;;;0.90;0.25;;;;;;;;;;3577915;40;20391;-71
2021/05/03 04:01:15;;;;;;;0.73;0.20;;;;;;;;;;3569635;40;20395;-71
2021/05/03 04:03:46;;;;;;;0.38;0.17;;;;;;;;;;3577912;40;20403;-71
2021/05/03 04:12:00;;;;;;;0.50;0.20;;;;;;;;;;3572504;40;20456;-71
2021/05/03 04:23:08;;;;;;;1.10;0.20;;;;;;;;;;3573445;40;20377;-71
2021/05/03 04:25:41;;;;;;;0.30;0.20;;;;;;;;;;3574775;40;20844;-71
2021/05/03 04:28:09;;;;;;;0.50;0.20;;;;;;;;;;3573246;40;20384;-71
2021/05/03 04:30:36;;;;;;;0.60;0.13;;;;;;;;;;3576087;40;20378;-72
2021/05/03 04:33:02;;;;;;;0.77;0.20;;;;;;;;;;3567079;40;20398;-72
2021/05/03 04:35:28;;;;;;;0.80;0.13;;;;;;;;;;3577102;40;20376;-71
2021/05/03 04:37:55;;;;;;;0.50;0.20;;;;;;;;;;3568379;40;20766;-71
2021/05/03 04:40:21;;;;;;;0.30;0.20;;;;;;;;;;3566577;40;20409;-71
2021/05/03 04:42:47;;;;;;;0.70;0.20;;;;;;;;;;3572821;40;20381;-72
2021/05/03 04:45:15;;;;;;;0.40;0.20;;;;;;;;;;3577012;40;20403;-71
2021/05/03 04:47:42;;;;;;;0.50;0.20;;;;;;;;;;3576712;40;20392;-71
2021/05/03 04:50:09;;;;;;;0.50;0.20;;;;;;;;;;3568247;40;20408;-71
2021/05/03 04:52:36;;;;;;;2.05;0.10;;;;;;;;;;3566574;40;20404;-71
2021/05/03 04:55:02;;;;;;;0.20;0.20;;;;;;;;;;3572365;40;20668;-71
2021/05/03 04:57:28;;;;;;;0.22;0.20;;;;;;;;;;3575191;40;20718;-72
2021/05/03 04:59:54;;;;;;;0.40;0.20;;;;;;;;;;3573960;40;20393;-72
2021/05/03 05:02:21;;;;;;;0.75;0.20;;;;;;;;;;3573244;40;20397;-71
2021/05/03 05:04:48;;;;;;;0.27;0.20;;;;;;;;;;3565999;40;20418;-71
2021/05/03 05:07:14;;;;;;;0.30;0.20;;;;;;;;;;3573197;40;20465;-71
2021/05/03 05:09:40;;;;;;;0.50;0.20;;;;;;;;;;3571439;40;20861;-71
2021/05/03 05:12:07;;;;;;;0.35;0.17;;;;;;;;;;3573870;40;20499;-71
2021/05/03 05:14:33;;;;;;;0.30;0.20;;;;;;;;;;3572795;40;20387;-72
2021/05/03 05:16:59;;;;;;;1.38;0.20;;;;;;;;;;3567447;40;20368;-72
2021/05/03 05:19:26;;;;;;;0.73;0.20;;;;;;;;;;3572277;40;20772;-71
2021/05/03 05:21:53;;;;;;;0.20;0.20;;;;;;;;;;3575351;40;20645;-71
2021/05/03 05:24:19;;;;;;;0.30;0.20;;;;;;;;;;3570184;40;20461;-71
2021/05/03 05:26:45;;;;;;;0.98;0.30;;;;;;;;;;3574324;40;20379;-72
2021/05/03 05:29:12;;;;;;;0.40;0.30;;;;;;;;;;3577350;40;20406;-72
2021/05/03 05:31:38;;;;;;;0.10;0.10;;;;;;;;;;3570868;40;20362;-71
2021/05/03 05:34:04;;;;;;;0.30;0.20;;;;;;;;;;3568843;40;20433;-72
2021/05/03 05:36:31;;;;;;;1.33;0.20;;;;;;;;;;3572593;40;20376;-72
2021/05/03 05:38:59;;;;;;;0.35;0.20;;;;;;;;;;3571967;40;20381;-72
2021/05/03 05:41:26;;;;;;;0.30;0.20;;;;;;;;;;3576331;40;20391;-72
2021/05/03 05:43:52;;;;;;;0.38;0.25;;;;;;;;;;3566575;40;20402;-72
2021/05/03 05:46:18;;;;;;;0.40;0.20;;;;;;;;;;3564764;40;20415;-71
2021/05/03 05:48:45;;;;;;;1.20;0.20;;;;;;;;;;3574550;40;20712;-71
2021/05/03 05:51:11;;;;;;;0.32;0.17;;;;;;;;;;3573559;40;20361;-71
2021/05/03 05:53:38;;;;;;;0.23;0.20;;;;;;;;;;3577069;40;20491;-70
2021/05/03 05:56:05;;;;;;;0.35;0.20;;;;;;;;;;3575810;40;20368;-70
2021/05/03 05:58:32;;;;;;;0.40;0.20;;;;;;;;;;3564204;40;20397;-70
2021/05/03 06:00:59;;;;;;;0.63;0.20;;;;;;;;;;3575145;40;20388;-70
2021/05/03 06:03:25;;;;;;;0.90;0.20;;;;;;;;;;3574177;40;20423;-70
2021/05/03 06:05:51;;;;;;;0.73;0.20;;;;;;;;;;3563707;40;20493;-70
2021/05/03 06:08:17;;;;;;;0.35;0.17;;;;;;;;;;3575049;40;20527;-68
2021/05/03 06:10:45;;;;;;;2.17;0.30;;;;;;;;;;3568450;40;20405;-68
2021/05/03 06:13:11;;;;;;;0.20;0.20;;;;;;;;;;3569154;40;20404;-68
2021/05/03 06:15:38;;;;;;;0.20;0.20;;;;;;;;;;3576505;40;20406;-68
2021/05/03 06:18:05;;;;;;;0.90;0.20;;;;;;;;;;3570619;40;20641;-68
2021/05/03 06:20:31;;;;;;;0.65;0.30;;;;;;;;;;3575230;40;20388;-68
2021/05/03 06:23:01;;;;;;;0.38;0.20;;;;;;;;;;3577054;40;20745;-70
2021/05/03 06:25:28;;;;;;;0.50;0.20;;;;;;;;;;3576776;40;20383;-70
2021/05/03 06:27:55;;;;;;;1.40;0.20;;;;;;;;;;3572240;40;20393;-70
2021/05/03 06:30:22;;;;;;;0.30;0.30;;;;;;;;;;3569749;40;20401;-70
2021/05/03 06:32:48;;;;;;;0.43;0.30;;;;;;;;;;3577084;40;20527;-70
2021/05/03 06:35:15;;;;;;;0.38;0.20;;;;;;;;;;3569789;40;20802;-70
2021/05/03 06:37:41;;;;;;;0.13;0.10;;;;;;;;;;3575010;40;20387;-72
2021/05/03 06:40:08;;;;;;;1.10;0.20;;;;;;;;;;3574092;40;20704;-70
2021/05/03 06:42:34;;;;;;;0.70;0.20;;;;;;;;;;3566785;40;20405;-70
2021/05/03 06:45:01;;;;;;;0.20;0.20;;;;;;;;;;3569004;40;20388;-70
2021/05/03 06:47:27;;;;;;;0.60;0.30;;;;;;;;;;3560948;40;20400;-70
2021/05/03 06:49:54;;;;;;;0.40;0.20;;;;;;;;;;3573139;40;20376;-70
2021/05/03 06:52:20;;;;;;;0.20;0.17;;;;;;;;;;3571022;40;20428;-70
2021/05/03 06:54:46;;;;;;;0.30;0.20;;;;;;;;;;3570332;40;20384;-70
2021/05/03 06:57:13;;;;;;;0.35;0.20;;;;;;;;;;3572926;40;20378;-71
2021/05/03 06:59:39;;;;;;;0.35;0.20;;;;;;;;;;3571634;40;20361;-70
2021/05/03 07:02:06;;;;;;;0.20;0.20;;;;;;;;;;3563045;40;20428;-70
2021/05/03 07:04:33;;;;;;;1.37;0.40;;;;;;;;;;3567759;40;21140;-70
2021/05/03 07:06:59;;;;;;;1.00;0.35;;;;;;;;;;3564003;40;20405;-70
2021/05/03 07:09:25;;;;;;;0.80;0.20;;;;;;;;;;3574347;40;20414;-71
2021/05/03 07:11:52;;;;;;;1.42;0.40;;;;;;;;;;3574895;40;20394;-70
2021/05/03 07:14:18;;;;;;;2.75;0.88;;;;;;;;;;3571351;40;20376;-68
2021/05/03 07:16:44;;;;;;;3.50;1.02;;;;;;;;;;3577513;40;20376;-68
2021/05/03 07:19:11;;;;;;;2.90;0.70;;;;;;;;;;3569231;40;20402;-69
2021/05/03 07:21:38;;;;;;;1.50;0.80;;;;;;;;;;3573563;40;20390;-68
2021/05/03 07:24:04;;;;;;;3.20;0.68;;;;;;;;;;3569466;40;20707;-68
2021/05/03 07:26:31;;;;;;;2.35;0.68;;;;;;;;;;3575617;40;20376;-68
2021/05/03 07:28:57;;;;;;;2.83;1.00;;;;;;;;;;3567637;40;20848;-69
2021/05/03 07:31:23;;;;;;;1.98;0.55;;;;;;;;;;3572447;40;20415;-68
2021/05/03 07:33:49;;;;;;;2.00;0.60;;;;;;;;;;3571280;40;20407;-68
2021/05/03 07:36:16;;;;;;;1.87;0.60;;;;;;;;;;3567110;40;20447;-68
2021/05/03 07:38:43;;;;;;;1.05;0.30;;;;;;;;;;3574456;40;20755;-68
2021/05/03 07:41:09;;;;;;;1.85;0.40;;;;;;;;;;3571219;40;20421;-68
2021/05/03 07:43:36;;;;;;;1.58;0.50;;;;;;;;;;3572659;40;20383;-70
2021/05/03 07:46:02;;;;;;;0.68;0.20;;;;;;;;;;3572327;40;20389;-70
2021/05/03 07:48:29;;;;;;;0.30;0.20;;;;;;;;;;3568660;40;20393;-70
2021/05/03 07:50:55;;;;;;;0.60;0.22;;;;;;;;;;3567702;40;20381;-70
2021/05/03 07:53:22;;;;;;;0.47;0.30;;;;;;;;;;3567220;40;20800;-70
2021/05/03 07:55:48;;;;;;;1.10;0.30;;;;;;;;;;3573297;40;20445;-70
2021/05/03 07:58:14;;;;;;;0.98;0.50;;;;;;;;;;3569883;40;20384;-70
2021/05/03 08:00:41;;;;;;;1.23;0.43;;;;;;;;;;3576505;40;20383;-70
2021/05/03 08:03:07;;;;;;;0.90;0.28;;;;;;;;;;3574619;40;20790;-68
2021/05/03 08:05:33;;;;;;;1.30;0.30;;;;;;;;;;3571932;40;20406;-68
2021/05/03 08:08:01;;;;;;;1.30;0.47;;;;;;;;;;3575356;40;20396;-68
2021/05/03 08:10:28;;;;;;;1.80;0.50;;;;;;;;;;3563111;40;20412;-68
2021/05/03 08:12:54;;;;;;;0.73;0.30;;;;;;;;;;3569368;40;20394;-68
2021/05/03 08:15:23;;;;;;;0.77;0.20;;;;;;;;;;3564939;40;20406;-68
2021/05/03 08:17:49;;;;;;;1.40;0.45;;;;;;;;;;3566228;40;20751;-68
2021/05/03 08:20:16;;;;;;;0.90;0.20;;;;;;;;;;3567509;40;20388;-69
2021/05/03 08:22:43;;;;;;;0.73;0.22;;;;;;;;;;3576162;40;20420;-70
2021/05/03 08:25:10;;;;;;;0.30;0.20;;;;;;;;;;3568540;40;20763;-68
2021/05/03 08:27:37;;;;;;;0.70;0.20;;;;;;;;;;3566278;40;20426;-69
2021/05/03 08:30:04;;;;;;;0.93;0.20;;;;;;;;;;3573152;40;20397;-68
2021/05/03 08:32:30;;;;;;;1.25;0.20;;;;;;;;;;3573087;40;20383;-68
2021/05/03 08:34:56;;;;;;;3.42;0.20;;;;;;;;;;3566798;40;20624;-68
2021/05/03 08:37:22;;;;;;;0.50;0.20;;;;;;;;;;3559754;40;20401;-68
2021/05/03 08:39:49;;;;;;;0.38;0.10;;;;;;;;;;3566572;40;20392;-69
2021/05/03 08:42:16;;;;;;;0.57;0.20;;;;;;;;;;3576251;40;20383;-69
2021/05/03 08:44:46;;;;;;;0.77;0.20;;;;;;;;;;3577648;40;20432;-71
2021/05/03 08:47:12;;;;;;;0.95;0.30;;;;;;;;;;3571599;40;20377;-68
2021/05/03 08:49:56;;;;;;;1.30;0.20;;;;;;;;;;3579112;40;20405;-71
2021/05/03 08:52:40;;;;;;;2.17;0.20;;;;;;;;;;3574633;40;20374;-68
2021/05/03 08:55:07;;;;;;;2.35;0.20;;;;;;;;;;3571470;40;20473;-68
2021/05/03 08:57:33;;;;;;;1.00;0.20;;;;;;;;;;3578773;40;20477;-71
2021/05/03 09:00:00;;;;;;;1.00;0.20;;;;;;;;;;3577311;40;20487;-68
2021/05/03 09:02:27;;;;;;;0.73;0.20;;;;;;;;;;3576140;40;20388;-68
2021/05/03 09:07:29;;;;;;;1.45;0.20;;;;;;;;;;4396323;23;20430;-73
2021/05/03 09:09:55;;;;;;;1.40;0.20;;;;;;;;;;3550194;40;20389;-73
2021/05/03 09:12:23;;;;;;;0.32;0.25;;;;;;;;;;3555006;40;20495;-69
2021/05/03 09:14:51;;;;;;;0.30;0.20;;;;;;;;;;3547900;40;20499;-69
2021/05/03 09:17:27;;;;;;;0.93;0.50;;;;;;;;;;3554240;40;20462;-69
2021/05/03 09:19:54;;;;;;;0.20;0.10;;;;;;;;;;3547718;40;20378;-70
2021/05/03 09:22:31;;;;;;;0.30;0.20;;;;;;;;;;3546751;40;20653;-69
2021/05/03 09:25:30;;;;;;;0.50;0.20;;;;;;;;;;3548939;40;20470;-70
2021/05/03 09:28:07;;;;;;;0.60;0.20;;;;;;;;;;3521364;40;20468;-70
2021/05/03 09:30:38;;;;;;;1.40;0.20;;;;;;;;;;3503646;40;283827;-70
2021/05/03 09:33:15;;;;;;;0.88;0.20;;;;;;;;;;3536372;40;20764;-70
2021/05/03 09:35:42;;;;;;;0.35;0.20;;;;;;;;;;3535890;40;20414;-69
2021/05/03 09:38:24;;;;;;;0.80;0.20;;;;;;;;;;3536490;40;20493;-70
2021/05/03 09:41:05;;;;;;;0.50;0.20;;;;;;;;;;3520352;40;20460;-70
2021/05/03 09:43:32;;;;;;;1.00;0.20;;;;;;;;;;3531893;40;20407;-69
2021/05/03 09:45:58;;;;;;;1.00;0.40;;;;;;;;;;3532796;40;20393;-70
2021/05/03 09:49:37;;;;;;;0.95;0.20;;;;;;;;;;3588703;39;281212;-70
2021/05/03 09:52:04;;;;;;;1.33;0.20;;;;;;;;;;3556846;39;20693;-69
2021/05/03 09:54:30;;;;;;;1.10;0.28;;;;;;;;;;3582659;39;20388;-70
2021/05/03 09:57:00;;;;;;;0.77;0.40;;;;;;;;;;3589833;39;20405;-69
2021/05/03 09:59:28;;;;;;;0.65;0.30;;;;;;;;;;3601778;39;20466;-69
2021/05/03 10:02:05;;;;;;;0.75;0.28;;;;;;;;;;3596639;39;20460;-68
2021/05/03 10:04:32;;;;;;;0.22;0.15;;;;;;;;;;3594586;39;20366;-69
2021/05/03 10:07:00;;;;;;;0.50;0.20;;;;;;;;;;3599108;39;20436;-69
2021/05/03 10:09:27;;;;;;;1.00;0.20;;;;;;;;;;3597365;39;20636;-69
2021/05/03 10:11:53;;;;;;;0.80;0.20;;;;;;;;;;3591477;40;20445;-69
2021/05/03 10:14:19;;;;;;;0.35;0.20;;;;;;;;;;3588770;40;20651;-68
2021/05/03 10:16:46;;;;;;;0.98;0.20;;;;;;;;;;3597344;39;20636;-69
2021/05/03 10:19:13;;;;;;;1.40;0.40;;;;;;;;;;3599653;39;20738;-68
2021/05/03 10:21:43;;;;;;;1.55;0.30;;;;;;;;;;3586342;39;20398;-69
2021/05/03 10:24:10;;;;;;;0.50;0.20;;;;;;;;;;3599979;39;20370;-69
2021/05/03 10:26:37;;;;;;;0.98;0.20;;;;;;;;;;3587484;39;20391;-68
2021/05/03 10:29:04;;;;;;;1.27;0.40;;;;;;;;;;3594617;39;20378;-68
2021/05/03 10:31:50;;;;;;;0.50;0.20;;;;;;;;;;3594346;39;20374;-68
2021/05/03 10:34:31;;;;;;;0.80;0.30;;;;;;;;;;3594382;39;20718;-69
2021/05/03 10:36:57;;;;;;;1.95;0.32;;;;;;;;;;3601107;39;20451;-69
2021/05/03 10:39:37;;;;;;;1.10;0.20;;;;;;;;;;3594407;39;20369;-69
2021/05/03 10:42:05;;;;;;;0.28;0.20;;;;;;;;;;3601273;39;20376;-68
2021/05/03 10:44:32;;;;;;;1.02;0.30;;;;;;;;;;3584762;40;20416;-69
2021/05/03 10:47:09;;;;;;;0.82;0.60;;;;;;;;;;3590375;39;20427;-69
2021/05/03 10:49:39;;;;;;;2.58;0.20;;;;;;;;;;3590315;40;20375;-69
2021/05/03 10:52:06;;;;;;;0.37;0.27;;;;;;;;;;3591660;39;20382;-69
2021/05/03 10:54:41;;;;;;;1.47;0.30;;;;;;;;;;3591488;40;20358;-68
2021/05/03 10:57:08;;;;;;;0.80;0.40;;;;;;;;;;3593829;40;20367;-69
2021/05/03 10:59:45;;;;;;;1.20;0.20;;;;;;;;;;3588436;40;20401;-69
2021/05/03 11:02:12;;;;;;;0.77;0.40;;;;;;;;;;3582680;40;20434;-69
2021/05/03 11:04:40;;;;;;;0.70;0.20;;;;;;;;;;3583287;40;20639;-69
2021/05/03 11:07:10;;;;;;;0.80;0.30;;;;;;;;;;3580784;40;20392;-69
2021/05/03 11:09:41;;;;;;;1.00;0.30;;;;;;;;;;3582284;40;20460;-69
2021/05/03 11:12:27;;;;;;;0.67;0.20;;;;;;;;;;3570987;40;20747;-69
2021/05/03 11:15:20;;;;;;;0.90;0.30;;;;;;;;;;3574695;40;20469;-69
2021/05/03 11:18:04;;;;;;;1.67;0.52;;;;;;;;;;3586257;40;20406;-69
2021/05/03 11:20:46;;;;;;;0.93;0.40;;;;;;;;;;3580865;40;20620;-69
2021/05/03 11:23:26;;;;;;;0.60;0.30;;;;;;;;;;3584342;40;20382;-69
2021/05/03 11:25:54;;;;;;;0.75;0.50;;;;;;;;;;3565053;40;20414;-68
2021/05/03 11:28:23;;;;;;;1.27;0.50;;;;;;;;;;3565168;40;20408;-69
2021/05/03 11:30:57;;;;;;;1.50;0.50;;;;;;;;;;3556812;40;20405;-69
2021/05/03 11:33:32;;;;;;;2.13;0.52;;;;;;;;;;3564990;40;20422;-69
2021/05/03 11:36:07;;;;;;;1.40;0.50;;;;;;;;;;3565010;40;20378;-69
2021/05/03 11:39:26;;;;;;;1.38;0.50;;;;;;;;;;3560657;40;20523;-68
2021/05/03 11:46:26;;;;;;;1.13;0.40;;;;;;;;;;3563582;40;20392;-69
2021/05/03 11:48:53;;;;;;;1.60;0.82;;;;;;;;;;3563968;40;20425;-69
2021/05/03 11:51:19;;;;;;;1.60;0.50;;;;;;;;;;3564566;40;20397;-69
2021/05/03 11:53:45;;;;;;;2.78;0.80;;;;;;;;;;3565929;40;20450;-69
2021/05/03 11:56:18;;;;;;;1.20;0.70;;;;;;;;;;3567377;40;20403;-70
2021/05/03 11:58:46;;;;;;;2.13;0.70;;;;;;;;;;3576070;40;20495;-69
2021/05/03 12:01:13;;;;;;;2.80;0.85;;;;;;;;;;3574335;40;20382;-69
2021/05/03 12:03:41;;;;;;;2.63;0.70;;;;;;;;;;3572970;40;20376;-69
2021/05/03 12:06:07;;;;;;;1.60;0.80;;;;;;;;;;3571250;40;20400;-69
2021/05/03 12:08:34;;;;;;;1.70;1.10;;;;;;;;;;3573112;40;20413;-69
2021/05/03 12:11:06;;;;;;;1.80;0.80;;;;;;;;;;3570961;40;20481;-69
2021/05/03 12:13:32;;;;;;;2.90;1.00;;;;;;;;;;3573489;40;20673;-68
2021/05/03 12:15:59;;;;;;;1.70;0.80;;;;;;;;;;3574502;40;20389;-68
2021/05/03 12:18:26;;;;;;;1.45;0.70;;;;;;;;;;3574657;40;20669;-68
2021/05/03 12:20:53;;;;;;;1.70;0.80;;;;;;;;;;3561311;40;20656;-69
2021/05/03 12:23:24;;;;;;;2.30;1.33;;;;;;;;;;3574012;40;20368;-69
2021/05/03 12:25:51;;;;;;;2.00;0.90;;;;;;;;;;3573145;40;20369;-69
2021/05/03 12:28:18;;;;;;;2.42;0.75;;;;;;;;;;3572980;40;20483;-69
2021/05/03 12:30:44;;;;;;;1.70;0.80;;;;;;;;;;3577007;40;20365;-69
2021/05/03 12:33:16;;;;;;;1.58;1.05;;;;;;;;;;3570889;40;20368;-69
2021/05/03 12:35:42;;;;;;;2.00;0.80;;;;;;;;;;3562987;40;20393;-69
2021/05/03 12:38:18;;;;;;;1.90;1.10;;;;;;;;;;3556080;40;20425;-69
2021/05/03 12:40:45;;;;;;;1.42;0.85;;;;;;;;;;3567894;40;20396;-69
2021/05/03 12:43:12;;;;;;;1.60;0.75;;;;;;;;;;3569688;40;20479;-69
2021/05/03 12:51:03;;;;;;;2.20;0.90;;;;;;;;;;3557258;40;20413;-69
2021/05/03 12:53:35;;;;;;;2.80;1.20;;;;;;;;;;3555216;40;20383;-69
2021/05/03 13:04:40;;;;;;;3.00;1.58;;;;;;;;;;3559444;40;20495;-69
2021/05/03 13:10:12;;;;;;;2.20;1.35;;;;;;;;;;3554794;40;20559;-68
2021/05/03 13:29:27;;;;;;;2.50;1.65;;;;;;;;;;3544430;40;20407;-69
2021/05/03 13:31:54;;;;;;;3.03;1.60;;;;;;;;;;3567829;40;20376;-69
2021/05/03 13:34:20;;;;;;;2.65;1.75;;;;;;;;;;3572180;40;20394;-69
2021/05/03 13:36:50;;;;;;;2.60;1.48;;;;;;;;;;3565349;40;20755;-69
2021/05/03 13:39:17;;;;;;;2.67;1.40;;;19.90;53.40;;;;;;3570251;40;20376;-69
2021/05/03 13:41:44;;;;;;;1.55;1.20;;;;;;;;;;3569653;40;20374;-68
2021/05/03 13:44:11;;;;;;;3.83;1.30;;;;;;;;;;3559369;40;20377;-69
2021/05/03 13:46:38;;;;;;;1.97;1.13;;;20.80;65.40;;;;;;3566627;40;20366;-69
2021/05/03 13:49:05;;;;;;;3.67;1.35;;;22.50;60.80;;;;;;3578427;40;20479;-70
2021/05/03 13:51:31;;;;;;;2.08;1.05;;;22.40;62.10;;;;;;3581079;40;20436;-69
2021/05/03 13:53:59;;;;;;;2.10;1.43;;;22.40;59.50;;;;;;3584579;40;20370;-69
2021/05/03 13:56:26;;;;;;;1.42;0.93;;;22.00;58.00;;;;;;3586306;40;20386;-69
2021/05/03 13:58:52;;;;;;;1.75;0.70;;;22.00;61.70;;;;;;3593804;40;20723;-69
2021/05/03 14:01:18;;;;;;;2.10;1.20;;;;;;;;;;3592830;40;20529;-69
2021/05/03 14:03:44;;;;;;;2.40;1.08;;;22.00;62.20;;;;;;3593049;40;20357;-69
2021/05/03 14:06:12;;;;;;;2.33;1.80;;;21.40;63.70;;;;;;3576925;40;20405;-70
2021/05/03 14:08:38;;;;;;;2.90;1.50;;;22.20;60.70;;;;;;3586109;40;20379;-69
2021/05/03 14:11:07;;;;;;;2.22;1.80;;;;;;;;;;3568620;40;20489;-69
2021/05/03 14:13:33;;;;;;;2.50;1.80;;;;;;;;;;3586078;40;20388;-69
2021/05/03 14:16:00;;;;;;;2.58;1.90;;;;;;;;;;3588037;40;20492;-69
2021/05/03 14:18:26;;;;;;;2.70;1.63;;;;;;;;;;3578822;40;20665;-69
2021/05/03 14:20:52;;;;;;;1.67;1.58;;;;;;;;;;3581049;40;20364;-69
2021/05/03 14:23:18;;;;;;;3.10;1.60;;;;;;;;;;3584409;40;20402;-69
2021/05/03 14:25:47;;;;;;;3.40;1.40;;;;;;;;;;3596290;40;20426;-69
2021/05/03 14:28:39;;;;;;;3.05;1.50;;;;;;;;;;3586014;40;20420;-69
2021/05/03 14:31:21;;;;;;;2.60;1.40;;;;;;;;;;3572257;40;20408;-69
2021/05/03 14:33:54;;;;;;;2.90;1.85;;;;;;;;;;3587656;39;20369;-69
2021/05/03 14:36:20;;;;;;;3.17;1.90;;;;;;;;;;3591830;40;20393;-69
2021/05/03 14:38:46;;;;;;;2.47;1.90;;;;;;;;;;3578164;40;20401;-69
2021/05/03 14:41:12;;;;;;;2.65;1.80;;;;;;;;;;3587567;40;20371;-69
2021/05/03 14:43:40;;;;;;;3.47;1.90;;;;;;;;;;3578783;40;20490;-69
2021/05/03 14:46:12;;;;;;;2.30;1.60;;;;;;;;;;3584217;40;20414;-69
2021/05/03 14:48:53;;;;;;;2.08;1.27;;;;;;;;;;3587127;40;20654;-69
2021/05/03 14:51:36;;;;;;;2.50;1.33;;;;;;;;;;3591916;40;20793;-69
2021/05/03 14:56:47;;;;;;;3.00;1.75;;;;;;;;;;3579697;40;20389;-69
2021/05/03 14:59:14;;;;;;;2.88;1.67;;;;;;;;;;3579722;40;20389;-69
2021/05/03 15:01:43;;;;;;;2.28;1.30;;;;;;;;;;3592200;40;20382;-69
2021/05/03 15:04:09;;;;;;;3.10;1.60;;;;;;;;;;3586073;40;20378;-69
2021/05/03 15:06:36;;;;;;;2.53;1.60;;;;;;;;;;3581718;40;20397;-70
2021/05/03 15:09:02;;;;;;;1.50;1.27;;;;;;;;;;3580273;40;20400;-69
2021/05/03 15:11:29;;;;;;;3.47;1.38;;;;;;;;;;3578325;40;20397;-69
2021/05/03 15:14:07;;;;;;;2.58;1.58;;;;;;;;;;3582630;40;20402;-69
2021/05/03 15:22:25;;;;;;;1.63;1.30;;;;;;;;;;3558121;40;20384;-69
2021/05/03 15:24:52;;;;;;;3.15;1.50;;;;;;;;;;3586559;40;20447;-69
2021/05/03 15:33:25;;;;;;;1.92;1.40;;;21.20;63.30;;;;;;3582821;40;20638;-68
2021/05/03 15:35:24;;;;;;;1.73;1.55;;;21.20;63.40;;;;;;3564150;40;20429;-69
2021/05/03 15:37:50;;;;;;;4.75;1.73;;;;;;;;;;3566886;40;20481;-69
2021/05/03 15:40:16;;;;;;;2.28;1.60;;;;;;;;;;3565168;40;20421;-69
2021/05/03 15:42:43;;;;;;;2.30;1.77;;;;;;;;;;3567099;40;20721;-69
2021/05/03 15:45:11;;;;;;;3.05;2.63;;;;;;;;;;3565267;40;20437;-69
2021/05/03 15:47:38;;;;;;;6.40;5.20;;;;;;;;;;3563583;40;20463;-69
2021/05/03 15:50:05;;;;;;;2.97;1.65;;;;;;;;;;3564709;40;20413;-69
2021/05/03 15:52:31;;;;;;;2.90;1.57;;;;;;;;;;3565439;40;20437;-68
2021/05/03 15:54:57;;;;;;;3.15;1.90;;;;;;;;;;3565298;40;20374;-69
2021/05/03 15:57:23;;;;;;;3.63;2.25;;;;;;;;;;3563677;40;20480;-69